Time;durP1;ratioP1;P1;durP2;ratioP2;P2;SDS_P1;SDS_P2;PMS_P1;PMS_P2;Temp;Humidity;BMP_temperature;BMP_pressure;BME280_temperature;BME280_humidity;BME280_pressure;Samples;Min_cycle;Max_cycle;Signal;HPM_P1;HPM_P2
2021/03/30 11:39:17;;;;;;;16.55;12.18;;;23.10;99.90;;;;;;5156889;27;20288;-70
2021/03/30 11:41:44;;;;;;;19.85;13.77;;;22.80;99.90;;;;;;5158667;27;20732;-71
2021/03/30 11:44:10;;;;;;;18.23;12.48;;;22.20;99.90;;;;;;5157726;27;20187;-71
2021/03/30 11:46:37;;;;;;;19.88;13.20;;;21.60;99.90;;;;;;5145760;27;20192;-72
2021/03/30 11:49:03;;;;;;;17.67;13.02;;;21.10;99.90;;;;;;5142670;27;20215;-72
2021/03/30 11:53:46;;;;;;;15.60;10.57;;;20.70;99.90;;;;;;5094249;27;20902;-37
2021/03/30 11:56:13;;;;;;;17.85;11.55;;;22.20;99.90;;;;;;5093453;28;20229;-38
2021/03/30 11:58:40;;;;;;;16.83;11.40;;;23.00;99.90;;;;;;5098541;28;20193;-39
2021/03/30 12:01:07;;;;;;;19.27;10.80;;;23.90;99.90;;;;;;5088755;28;20680;-40
2021/03/30 12:03:36;;;;;;;15.10;9.35;;;24.50;99.90;;;;;;5092052;28;20239;-41
2021/03/30 12:06:06;;;;;;;17.67;12.63;;;25.70;99.90;;;;;;5090234;28;20186;-40
2021/03/30 12:08:32;;;;;;;15.60;11.98;;;26.70;99.90;;;;;;5092397;28;20224;-38
2021/03/30 12:11:00;;;;;;;20.15;13.32;;;26.10;99.90;;;;;;5092503;28;20197;-37
2021/03/30 12:13:27;;;;;;;18.60;14.05;;;25.90;99.90;;;;;;5079376;28;20609;-39
2021/03/30 12:15:55;;;;;;;13.95;10.07;;;25.10;99.90;;;;;;5056739;28;20340;-38
2021/03/30 12:18:21;;;;;;;14.00;8.88;;;25.20;99.90;;;;;;5061371;28;20251;-36
2021/03/30 12:20:48;;;;;;;11.27;8.05;;;25.30;99.90;;;;;;5060873;28;20705;-37
2021/03/30 12:23:15;;;;;;;14.00;9.63;;;25.30;99.90;;;;;;5061228;28;20433;-38
2021/03/30 12:25:43;;;;;;;12.48;8.75;;;24.90;99.90;;;;;;5060487;28;20225;-39
2021/03/30 12:28:11;;;;;;;12.93;8.48;;;25.40;99.90;;;;;;5060461;28;20207;-39
2021/03/30 12:30:38;;;;;;;16.77;11.55;;;24.90;99.90;;;;;;5059765;28;20217;-38
2021/03/30 12:33:05;;;;;;;15.90;9.55;;;24.80;99.90;;;;;;5057587;28;20219;-36
2021/03/30 12:35:31;;;;;;;15.52;9.93;;;25.50;99.90;;;;;;5058113;28;20199;-37
2021/03/30 12:37:58;;;;;;;11.35;9.20;;;25.50;99.90;;;;;;5055901;28;20274;-38
2021/03/30 12:40:24;;;;;;;16.00;10.35;;;25.90;99.50;;;;;;5056213;28;20210;-39
2021/03/30 12:42:51;;;;;;;11.63;8.82;;;26.80;99.70;;;;;;5059868;28;20212;-37
2021/03/30 12:45:20;;;;;;;11.13;7.25;;;27.50;97.50;;;;;;5060920;28;20203;-38
2021/03/30 12:47:47;;;;;;;13.07;7.63;;;27.30;96.90;;;;;;5055727;28;20639;-37
2021/03/30 12:50:14;;;;;;;8.50;6.72;;;27.50;94.80;;;;;;5059369;28;20196;-37
2021/03/30 12:52:41;;;;;;;8.15;6.78;;;28.20;94.00;;;;;;5062245;28;20223;-37
2021/03/30 12:55:11;;;;;;;12.98;6.43;;;27.70;93.60;;;;;;5059525;28;20278;-40
2021/03/30 12:57:39;;;;;;;10.70;7.13;;;28.10;93.20;;;;;;5061207;28;20200;-40
2021/03/30 13:00:07;;;;;;;10.32;6.07;;;28.10;91.00;;;;;;5058103;28;20661;-38
2021/03/30 13:02:35;;;;;;;7.72;6.63;;;26.50;88.70;;;;;;5056157;28;20210;-37
2021/03/30 13:05:02;;;;;;;10.50;6.28;;;25.80;90.10;;;;;;5043026;28;20439;-38
2021/03/30 13:07:29;;;;;;;9.93;6.30;;;26.30;89.30;;;;;;5042350;28;20659;-40
2021/03/30 13:09:56;;;;;;;7.20;5.57;;;26.80;87.80;;;;;;5050767;28;20207;-38
2021/03/30 13:12:22;;;;;;;7.90;5.40;;;27.00;87.10;;;;;;5043949;28;20212;-38
2021/03/30 13:14:49;;;;;;;7.93;5.80;;;26.70;83.70;;;;;;5039290;28;20258;-37
2021/03/30 13:17:16;;;;;;;9.18;5.72;;;26.50;80.90;;;;;;5042379;28;20319;-39
2021/03/30 13:19:44;;;;;;;8.60;4.93;;;26.00;78.40;;;;;;5038074;28;20219;-39
2021/03/30 13:22:11;;;;;;;9.02;5.03;;;25.70;75.50;;;;;;5044406;28;20211;-38
2021/03/30 13:24:38;;;;;;;7.80;5.60;;;25.40;75.00;;;;;;5044462;28;20204;-37
2021/03/30 13:27:06;;;;;;;8.55;5.38;;;25.30;74.70;;;;;;5054951;28;20196;-40
2021/03/30 13:29:38;;;;;;;10.38;6.10;;;25.30;74.30;;;;;;5056341;28;20582;-39
2021/03/30 13:32:07;;;;;;;8.45;4.95;;;25.10;74.40;;;;;;5050575;28;20273;-38
2021/03/30 13:34:33;;;;;;;9.10;5.80;;;25.10;76.20;;;;;;5053817;28;20191;-37
2021/03/30 13:37:02;;;;;;;9.30;6.13;;;25.20;73.20;;;;;;5051273;28;20203;-42
2021/03/30 13:39:28;;;;;;;9.95;5.72;;;25.40;75.10;;;;;;5059390;28;20191;-39
2021/03/30 13:41:56;;;;;;;7.70;5.57;;;25.30;73.50;;;;;;5053331;28;20286;-40
2021/03/30 13:44:24;;;;;;;9.88;6.18;;;25.50;75.10;;;;;;5065923;28;20194;-38
2021/03/30 13:46:52;;;;;;;7.78;5.93;;;25.60;77.10;;;;;;5058734;28;20560;-38
2021/03/30 13:49:18;;;;;;;11.23;5.90;;;25.50;76.30;;;;;;5059090;28;20274;-39
2021/03/30 13:51:46;;;;;;;9.48;6.80;;;25.50;73.50;;;;;;5066110;28;20277;-39
2021/03/30 13:54:14;;;;;;;9.00;6.93;;;25.50;75.60;;;;;;5058064;28;20274;-39
2021/03/30 13:56:42;;;;;;;9.20;6.85;;;25.80;77.80;;;;;;5065959;28;20468;-36
2021/03/30 13:59:09;;;;;;;7.80;6.85;;;26.00;77.90;;;;;;5061068;28;20198;-44
2021/03/30 14:01:38;;;;;;;9.30;6.68;;;26.00;75.60;;;;;;5062257;28;20214;-39
2021/03/30 14:04:05;;;;;;;8.10;5.47;;;26.30;74.90;;;;;;5066288;28;20202;-37
2021/03/30 14:06:32;;;;;;;7.68;6.30;;;26.20;75.10;;;;;;5056168;28;20701;-37
2021/03/30 14:08:59;;;;;;;12.63;7.18;;;25.90;76.10;;;;;;5058549;28;20187;-37
2021/03/30 14:11:33;;;;;;;10.32;7.32;;;25.70;75.80;;;;;;5058844;28;20198;-37
2021/03/30 14:14:08;;;;;;;12.10;7.95;;;26.00;75.70;;;;;;5035735;28;20684;-39
2021/03/30 14:16:42;;;;;;;8.43;6.07;;;26.50;75.60;;;;;;5043064;28;20616;-39
2021/03/30 14:19:15;;;;;;;9.57;6.30;;;27.50;73.80;;;;;;5040220;28;20244;-37
2021/03/30 14:21:45;;;;;;;14.70;9.27;;;27.30;73.50;;;;;;5031669;28;20258;-39
2021/03/30 14:24:31;;;;;;;8.65;5.78;;;28.30;74.00;;;;;;5036498;28;20199;-41
2021/03/30 14:26:59;;;;;;;12.48;7.18;;;28.80;71.50;;;;;;5044485;28;20207;-40
2021/03/30 14:29:25;;;;;;;8.95;6.88;;;28.60;71.30;;;;;;5038996;28;20290;-37
2021/03/30 14:31:53;;;;;;;8.90;7.00;;;29.20;68.40;;;;;;5038281;28;20250;-36
2021/03/30 14:34:20;;;;;;;8.50;7.13;;;28.20;68.50;;;;;;5051029;28;20630;-37
2021/03/30 14:36:47;;;;;;;10.85;6.47;;;29.40;68.90;;;;;;5046801;28;20740;-40
2021/03/30 14:39:14;;;;;;;8.07;5.25;;;30.70;68.00;;;;;;5050821;28;20561;-39
2021/03/30 14:41:42;;;;;;;10.80;6.80;;;31.80;62.10;;;;;;5050588;28;20303;-42
2021/03/30 14:44:17;;;;;;;7.65;5.60;;;32.10;63.30;;;;;;5049238;28;20202;-42
2021/03/30 14:52:19;;;;;;;5.50;4.07;;;34.00;54.40;;;;;;5050128;28;20767;-42
2021/03/30 14:54:58;;;;;;;9.20;4.55;;;33.20;52.30;;;;;;5044057;28;20188;-40
2021/03/30 14:57:26;;;;;;;6.07;5.18;;;32.70;52.70;;;;;;5048224;28;20203;-39
2021/03/30 14:59:57;;;;;;;5.18;4.50;;;33.10;50.20;;;;;;5046216;28;20239;-40
2021/03/30 15:02:59;;;;;;;7.80;5.45;;;33.50;49.30;;;;;;5039228;28;20214;-41
2021/03/30 15:05:26;;;;;;;7.07;4.82;;;33.30;48.60;;;;;;5080744;22;20297;-79
2021/03/30 15:07:53;;;;;;;8.18;5.38;;;32.30;49.10;;;;;;5098010;28;20222;-79
2021/03/30 15:10:20;;;;;;;6.40;5.60;;;33.40;48.60;;;;;;5091528;28;20198;-79
2021/03/30 15:12:47;;;;;;;5.15;4.18;;;34.20;47.70;;;;;;5091694;28;20230;-79
2021/03/30 15:15:16;;;;;;;7.75;6.72;;;34.10;46.40;;;;;;5091333;28;20219;-79
2021/03/30 15:17:44;;;;;;;18.10;13.40;;;32.90;47.30;;;;;;5107794;22;20227;-80
2021/03/30 15:20:10;;;;;;;8.52;6.72;;;32.70;48.40;;;;;;5032569;28;20202;-78
2021/03/30 15:22:37;;;;;;;24.60;21.92;;;33.00;46.10;;;;;;5038937;28;20215;-80
2021/03/30 15:25:05;;;;;;;14.15;10.43;;;33.60;46.10;;;;;;5040014;28;20704;-78
2021/03/30 15:27:32;;;;;;;12.90;11.73;;;33.50;46.00;;;;;;5030728;28;20224;-78
2021/03/30 15:30:01;;;;;;;10.27;9.38;;;34.10;45.00;;;;;;5032658;28;20671;-78
2021/03/30 15:32:29;;;;;;;12.30;7.30;;;34.00;44.90;;;;;;5027159;28;20242;-78
2021/03/30 15:34:57;;;;;;;8.07;6.82;;;33.60;44.30;;;;;;5032419;28;20306;-77
2021/03/30 15:37:24;;;;;;;10.95;9.55;;;33.60;44.20;;;;;;5038860;28;20263;-80
2021/03/30 15:39:51;;;;;;;14.07;12.73;;;33.60;43.80;;;;;;5050844;28;20200;-79
2021/03/30 15:42:18;;;;;;;12.23;11.00;;;33.60;44.00;;;;;;5050774;28;20215;-79
2021/03/30 15:44:58;;;;;;;6.68;3.90;;;33.90;44.40;;;;;;5023404;28;20272;-80
2021/03/30 15:47:25;;;;;;;8.40;6.15;;;33.40;43.10;;;;;;5040109;28;20244;-79
2021/03/30 15:49:54;;;;;;;7.03;5.65;;;33.60;43.40;;;;;;5042660;28;20204;-80
2021/03/30 15:52:22;;;;;;;6.60;6.00;;;33.40;43.00;;;;;;5020009;28;20272;-80
2021/03/30 15:54:52;;;;;;;4.93;3.70;;;33.90;42.60;;;;;;5038415;28;20184;-79
2021/03/30 15:57:19;;;;;;;9.18;5.45;;;33.20;42.90;;;;;;5038112;28;20565;-79
2021/03/30 15:59:45;;;;;;;5.65;4.43;;;33.10;42.80;;;;;;5035831;28;20286;-79
2021/03/30 16:02:13;;;;;;;7.30;5.50;;;32.50;42.90;;;;;;5047107;28;20276;-80
2021/03/30 16:04:41;;;;;;;7.82;3.97;;;32.10;43.60;;;;;;5023142;28;20223;-81
2021/03/30 16:07:10;;;;;;;8.45;6.43;;;31.70;43.10;;;;;;5039856;28;20541;-79
2021/03/30 16:09:37;;;;;;;11.25;6.93;;;31.50;44.10;;;;;;5040168;28;20697;-81
2021/03/30 16:12:05;;;;;;;9.57;8.00;;;31.50;43.00;;;;;;5046765;28;20215;-79
2021/03/30 16:14:32;;;;;;;7.88;3.90;;;31.10;43.30;;;;;;5048241;28;20195;-80
2021/03/30 16:17:06;;;;;;;15.30;10.60;;;30.60;42.60;;;;;;5039961;28;20702;-80
2021/03/30 16:19:48;;;;;;;8.77;5.05;;;30.40;42.80;;;;;;5045352;28;20321;-79
2021/03/30 16:22:23;;;;;;;9.57;7.88;;;30.60;42.80;;;;;;5055481;28;20227;-78
2021/03/30 16:24:49;;;;;;;7.72;6.10;;;30.50;43.20;;;;;;5052908;28;20203;-79
2021/03/30 16:27:16;;;;;;;15.43;13.68;;;30.50;42.50;;;;;;5032800;28;20316;-79
2021/03/30 16:29:45;;;;;;;6.90;5.22;;;30.00;43.40;;;;;;5049503;28;20258;-80
2021/03/30 16:32:11;;;;;;;30.80;24.27;;;29.80;43.70;;;;;;5045243;28;20227;-80
2021/03/30 16:34:39;;;;;;;7.72;6.03;;;30.00;44.30;;;;;;5054747;28;20225;-81
2021/03/30 16:37:07;;;;;;;9.77;6.00;;;30.00;43.30;;;;;;5044340;28;20204;-81
2021/03/30 16:39:38;;;;;;;9.48;7.00;;;29.30;44.20;;;;;;5045654;28;20205;-77
2021/03/30 16:42:10;;;;;;;7.97;5.72;;;28.90;44.10;;;;;;5031536;28;20196;-80
2021/03/30 16:44:37;;;;;;;12.07;7.82;;;28.60;45.10;;;;;;5048766;28;20300;-82
2021/03/30 16:47:04;;;;;;;15.13;11.20;;;28.00;45.50;;;;;;5046123;28;20303;-80
2021/03/30 16:49:37;;;;;;;13.30;10.15;;;27.20;46.60;;;;;;5049300;28;20227;-83
2021/03/30 16:52:04;;;;;;;10.45;6.10;;;26.50;46.50;;;;;;5046312;28;20199;-85
2021/03/30 16:54:34;;;;;;;14.98;10.27;;;26.00;46.40;;;;;;5057567;28;20191;-85
2021/03/30 16:57:01;;;;;;;11.90;10.40;;;25.50;47.40;;;;;;5050862;28;20188;-81
2021/03/30 16:59:28;;;;;;;9.48;7.20;;;25.20;47.90;;;;;;5024364;28;20220;-83
2021/03/30 17:01:57;;;;;;;12.07;7.35;;;24.90;48.80;;;;;;5030679;28;20200;-84
2021/03/30 17:04:24;;;;;;;28.40;22.10;;;24.70;49.00;;;;;;5047844;28;20471;-81
2021/03/30 17:06:50;;;;;;;14.68;10.35;;;24.70;49.00;;;;;;5044463;28;22304;-82
2021/03/30 17:09:17;;;;;;;9.52;6.60;;;24.90;48.50;;;;;;5044290;28;20657;-78
2021/03/30 17:11:44;;;;;;;9.50;5.53;;;24.40;48.90;;;;;;5034187;28;20208;-77
2021/03/30 17:14:11;;;;;;;8.35;7.45;;;23.80;49.60;;;;;;5026305;28;20774;-75
2021/03/30 17:16:37;;;;;;;14.88;11.50;;;23.50;50.00;;;;;;5028651;28;20255;-76
2021/03/30 17:19:04;;;;;;;31.40;23.67;;;23.50;50.00;;;;;;5033422;28;20227;-77
2021/03/30 17:21:31;;;;;;;29.27;21.42;;;23.30;50.10;;;;;;5032640;28;20277;-77
2021/03/30 17:23:58;;;;;;;81.40;56.38;;;23.30;50.40;;;;;;5033913;28;20257;-76
2021/03/30 17:26:25;;;;;;;67.13;46.33;;;23.10;51.10;;;;;;5030190;28;20664;-77
2021/03/30 17:28:53;;;;;;;45.88;33.25;;;22.70;52.50;;;;;;5034646;28;20273;-76
2021/03/30 17:31:20;;;;;;;41.58;29.63;;;22.40;54.40;;;;;;5033756;28;20195;-78
2021/03/30 17:33:47;;;;;;;28.15;17.77;;;22.10;56.00;;;;;;5034164;28;20318;-78
2021/03/30 17:36:14;;;;;;;65.60;49.38;;;22.00;53.30;;;;;;5034213;28;20200;-78
2021/03/30 17:38:41;;;;;;;75.85;59.20;;;21.80;55.40;;;;;;5032797;28;20216;-78
2021/03/30 17:41:07;;;;;;;25.25;18.80;;;21.70;56.00;;;;;;5037429;28;20609;-77
2021/03/30 17:43:34;;;;;;;8.82;5.70;;;21.50;56.20;;;;;;5034660;28;20188;-78
2021/03/30 17:46:02;;;;;;;11.90;4.82;;;21.20;55.30;;;;;;5033751;28;20574;-78
2021/03/30 17:48:28;;;;;;;5.20;3.88;;;21.10;55.80;;;;;;5033311;28;20211;-77
2021/03/30 17:50:55;;;;;;;5.95;3.53;;;21.00;57.40;;;;;;5033453;28;20192;-78
2021/03/30 17:53:22;;;;;;;8.32;4.20;;;20.90;57.70;;;;;;5033142;28;20293;-77
2021/03/30 17:55:49;;;;;;;16.05;12.93;;;20.60;57.50;;;;;;5036660;28;20192;-79
2021/03/30 17:58:16;;;;;;;9.30;5.15;;;20.30;57.50;;;;;;5034333;28;20227;-79
2021/03/30 18:00:42;;;;;;;9.23;5.35;;;19.80;58.30;;;;;;5036511;28;20702;-78
2021/03/30 18:03:10;;;;;;;8.02;5.20;;;19.60;58.70;;;;;;5038731;28;20184;-78
2021/03/30 18:05:36;;;;;;;7.97;4.60;;;19.40;60.70;;;;;;5018726;28;20204;-77
2021/03/30 18:08:03;;;;;;;7.20;4.07;;;19.10;64.00;;;;;;5010160;28;20318;-77
2021/03/30 18:10:31;;;;;;;10.65;4.97;;;19.10;67.80;;;;;;5034359;28;20247;-76
2021/03/30 18:12:57;;;;;;;5.95;4.82;;;18.90;69.00;;;;;;5032227;28;20220;-78
2021/03/30 18:15:24;;;;;;;6.93;5.63;;;18.80;69.80;;;;;;5032610;28;20287;-78
2021/03/30 18:17:50;;;;;;;8.48;5.78;;;18.60;71.40;;;;;;5024417;28;20267;-78
2021/03/30 18:20:19;;;;;;;10.95;5.35;;;18.50;72.00;;;;;;5031964;28;20211;-78
2021/03/30 18:22:46;;;;;;;9.05;4.82;;;18.50;72.40;;;;;;5034727;28;20226;-78
2021/03/30 18:25:13;;;;;;;8.68;5.50;;;18.60;73.30;;;;;;5031674;28;20188;-78
2021/03/30 18:27:40;;;;;;;6.07;4.95;;;18.50;72.40;;;;;;5011624;28;20228;-78
2021/03/30 18:30:09;;;;;;;7.45;4.82;;;18.50;73.80;;;;;;5026120;28;20197;-77
2021/03/30 18:32:36;;;;;;;9.80;8.50;;;18.50;74.10;;;;;;5036639;28;20319;-78
2021/03/30 18:35:04;;;;;;;18.55;15.52;;;18.50;73.80;;;;;;5048592;28;20253;-78
2021/03/30 18:37:32;;;;;;;9.75;5.28;;;18.50;74.60;;;;;;5034662;28;20216;-78
2021/03/30 18:39:58;;;;;;;8.75;5.57;;;18.40;71.50;;;;;;5025970;28;20239;-79
2021/03/30 18:42:25;;;;;;;11.98;6.25;;;18.30;73.40;;;;;;5030996;28;20291;-78
2021/03/30 18:44:52;;;;;;;8.63;5.50;;;18.40;74.90;;;;;;5028897;28;20199;-78
2021/03/30 18:47:18;;;;;;;9.57;4.72;;;18.40;74.50;;;;;;5031133;28;20216;-78
2021/03/30 18:49:46;;;;;;;9.52;6.13;;;18.40;74.40;;;;;;5033243;28;20191;-78
2021/03/30 18:52:12;;;;;;;14.63;6.22;;;18.30;75.00;;;;;;5031967;28;20322;-79
2021/03/30 18:54:43;;;;;;;8.55;5.05;;;18.20;75.00;;;;;;5037010;28;20208;-80
2021/03/30 18:57:11;;;;;;;11.68;5.75;;;18.20;75.70;;;;;;5036496;28;20683;-78
2021/03/30 18:59:46;;;;;;;10.65;7.55;;;18.10;76.50;;;;;;5049278;28;20195;-78
2021/03/30 19:02:12;;;;;;;81.03;64.13;;;17.70;75.00;;;;;;5034255;28;20294;-78
2021/03/30 19:04:39;;;;;;;40.25;32.90;;;17.40;75.30;;;;;;5049734;28;20666;-77
2021/03/30 19:07:08;;;;;;;17.42;12.95;;;17.30;76.60;;;;;;5050708;28;20203;-77
2021/03/30 19:09:35;;;;;;;20.50;12.13;;;17.10;79.10;;;;;;5052019;28;20230;-77
2021/03/30 19:12:04;;;;;;;7.28;6.35;;;17.20;79.70;;;;;;5041846;28;20270;-77
2021/03/30 19:14:30;;;;;;;8.60;5.78;;;16.90;79.00;;;;;;5031624;28;20628;-78
2021/03/30 19:16:57;;;;;;;8.50;6.30;;;16.70;79.10;;;;;;5036798;28;20322;-77
2021/03/30 19:19:24;;;;;;;12.27;7.13;;;16.50;80.90;;;;;;5042912;28;20227;-78
2021/03/30 19:21:50;;;;;;;11.85;6.70;;;16.50;81.60;;;;;;5029775;28;20219;-78
2021/03/30 19:24:17;;;;;;;23.52;13.70;;;16.70;82.40;;;;;;5031184;28;20275;-78
2021/03/30 19:26:44;;;;;;;18.83;11.70;;;16.80;84.20;;;;;;5029700;28;20254;-78
2021/03/30 19:29:12;;;;;;;11.95;5.28;;;16.90;84.60;;;;;;5030822;28;20230;-78
2021/03/30 19:31:42;;;;;;;12.05;6.43;;;16.80;85.60;;;;;;5030797;28;20196;-76
2021/03/30 19:34:09;;;;;;;9.23;7.05;;;16.70;86.80;;;;;;5028950;28;20330;-77
2021/03/30 19:36:40;;;;;;;11.60;7.70;;;16.50;88.10;;;;;;5031163;28;20209;-78
2021/03/30 19:39:07;;;;;;;18.67;10.02;;;16.50;90.10;;;;;;5032336;28;20344;-77
2021/03/30 19:41:34;;;;;;;7.32;6.63;;;16.40;90.50;;;;;;5031327;28;20574;-77
2021/03/30 19:44:00;;;;;;;7.95;6.38;;;15.70;89.80;;;;;;5015796;28;20712;-76
2021/03/30 19:46:28;;;;;;;15.50;6.20;;;15.50;90.60;;;;;;5031676;28;20577;-77
2021/03/30 19:48:54;;;;;;;8.75;6.22;;;15.60;90.70;;;;;;5031122;28;20215;-77
2021/03/30 19:51:24;;;;;;;13.23;7.20;;;15.70;90.80;;;;;;5035148;28;20234;-77
2021/03/30 19:53:51;;;;;;;10.30;6.97;;;15.70;90.20;;;;;;5030192;28;20220;-78
2021/03/30 19:56:17;;;;;;;8.30;6.93;;;15.40;90.80;;;;;;5031057;28;20529;-77
2021/03/30 19:58:44;;;;;;;8.93;6.45;;;15.40;91.90;;;;;;5031254;28;20266;-77
2021/03/30 20:01:11;;;;;;;12.93;8.00;;;15.40;91.30;;;;;;5030066;28;20187;-77
2021/03/30 20:03:39;;;;;;;11.02;7.68;;;15.30;91.20;;;;;;5031651;28;20278;-77
2021/03/30 20:06:06;;;;;;;12.73;8.90;;;15.10;91.90;;;;;;5031857;28;20365;-78
2021/03/30 20:08:34;;;;;;;16.48;10.88;;;15.20;92.10;;;;;;5030533;28;20219;-78
2021/03/30 20:11:01;;;;;;;19.25;11.90;;;15.20;92.20;;;;;;5030919;28;20267;-76
2021/03/30 20:13:28;;;;;;;11.73;8.57;;;15.40;92.20;;;;;;5031565;28;20242;-78
2021/03/30 20:15:55;;;;;;;10.48;6.63;;;15.40;92.30;;;;;;5033838;28;20211;-78
2021/03/30 20:18:22;;;;;;;10.00;8.02;;;15.40;92.70;;;;;;5030091;28;20251;-81
2021/03/30 20:20:50;;;;;;;10.77;6.32;;;15.40;93.30;;;;;;5040623;28;20285;-80
2021/03/30 20:23:16;;;;;;;9.98;7.35;;;15.30;93.30;;;;;;5039876;28;20218;-79
2021/03/30 20:25:43;;;;;;;12.13;6.72;;;15.30;93.60;;;;;;5036690;28;20231;-79
2021/03/30 20:28:10;;;;;;;8.35;6.75;;;15.20;93.80;;;;;;5037968;28;20229;-79
2021/03/30 20:30:37;;;;;;;10.18;7.80;;;14.50;94.20;;;;;;5034623;28;20246;-79
2021/03/30 20:33:07;;;;;;;16.77;9.73;;;14.00;95.10;;;;;;5045624;28;20222;-78
2021/03/30 20:35:34;;;;;;;29.83;22.90;;;14.10;95.50;;;;;;5053862;28;20199;-78
2021/03/30 20:38:02;;;;;;;14.38;11.93;;;14.30;95.60;;;;;;5034925;28;20211;-78
2021/03/30 20:40:29;;;;;;;9.73;7.35;;;14.40;95.80;;;;;;5034435;28;20192;-78
2021/03/30 20:42:56;;;;;;;9.98;8.27;;;14.40;95.90;;;;;;5032812;28;20650;-76
2021/03/30 20:45:24;;;;;;;10.50;7.88;;;14.40;95.90;;;;;;5033557;28;20192;-77
2021/03/30 20:47:51;;;;;;;10.13;8.30;;;14.20;96.20;;;;;;5034168;28;20230;-78
2021/03/30 20:50:19;;;;;;;9.13;7.07;;;14.20;96.40;;;;;;5028039;28;20188;-78
2021/03/30 20:52:45;;;;;;;13.00;7.45;;;14.10;96.80;;;;;;5033948;28;20634;-78
2021/03/30 20:55:14;;;;;;;9.27;7.70;;;14.30;97.00;;;;;;5034227;28;20196;-77
2021/03/30 20:57:40;;;;;;;9.38;7.80;;;14.10;97.40;;;;;;5029169;28;20244;-77
2021/03/30 21:00:10;;;;;;;9.88;8.27;;;14.00;97.50;;;;;;5053109;28;20620;-78
2021/03/30 21:02:37;;;;;;;10.50;7.65;;;14.00;97.70;;;;;;5055635;28;20682;-78
2021/03/30 21:05:08;;;;;;;10.88;8.23;;;14.10;97.60;;;;;;5047948;28;20193;-79
2021/03/30 21:07:35;;;;;;;12.10;8.43;;;14.10;97.80;;;;;;5041731;28;20235;-79
2021/03/30 21:10:02;;;;;;;10.30;7.68;;;14.10;98.00;;;;;;5041226;28;20207;-79
2021/03/30 21:12:33;;;;;;;10.57;7.78;;;14.00;98.10;;;;;;5029512;28;20338;-78
2021/03/30 21:15:00;;;;;;;8.52;7.70;;;14.00;98.40;;;;;;5033457;28;20240;-79
2021/03/30 21:17:27;;;;;;;9.43;6.90;;;13.90;98.60;;;;;;5030209;28;20212;-78
2021/03/30 21:19:53;;;;;;;9.18;6.85;;;13.80;98.90;;;;;;5097102;23;20696;-85
2021/03/30 21:22:39;;;;;;;8.57;7.38;;;13.80;99.20;;;;;;5090216;28;20697;-85
2021/03/30 21:25:11;;;;;;;10.40;6.88;;;13.70;99.20;;;;;;5096080;28;20260;-83
2021/03/30 21:27:58;;;;;;;8.95;7.82;;;13.00;99.60;;;;;;5074290;28;20210;-83
2021/03/30 21:30:25;;;;;;;8.18;7.32;;;12.30;99.90;;;;;;5080413;28;20319;-85
2021/03/30 21:32:52;;;;;;;12.77;7.95;;;12.40;99.90;;;;;;5084000;28;20222;-85
2021/03/30 21:35:20;;;;;;;10.38;7.72;;;12.40;99.90;;;;;;5098336;28;20271;-84
2021/03/30 21:37:46;;;;;;;12.23;8.43;;;12.20;99.90;;;;;;5078301;28;20575;-85
2021/03/30 21:40:16;;;;;;;12.88;8.55;;;12.40;99.90;;;;;;5071621;28;20635;-85
2021/03/30 21:42:43;;;;;;;10.13;7.57;;;12.60;99.90;;;;;;5083544;28;20194;-85
2021/03/30 21:45:12;;;;;;;9.70;8.13;;;12.60;99.90;;;;;;5099978;28;20252;-85
2021/03/30 21:47:41;;;;;;;10.50;8.35;;;12.70;99.90;;;;;;5083762;28;20193;-85
2021/03/30 21:50:09;;;;;;;15.52;12.38;;;12.90;99.90;;;;;;5101251;28;20221;-84
2021/03/30 21:52:36;;;;;;;12.35;9.55;;;13.00;99.90;;;;;;5081705;28;20247;-83
2021/03/30 21:55:08;;;;;;;12.55;8.23;;;13.10;99.90;;;;;;5065212;28;20230;-85
2021/03/30 21:57:36;;;;;;;9.77;7.63;;;13.00;99.90;;;;;;5081258;28;20216;-83
2021/03/30 22:00:07;;;;;;;9.40;8.15;;;13.00;99.90;;;;;;5064892;28;20213;-85
2021/03/30 22:02:41;;;;;;;9.25;8.35;;;12.90;99.90;;;;;;5082736;28;20215;-85
2021/03/30 22:05:09;;;;;;;10.48;8.15;;;13.00;99.90;;;;;;5116924;28;20186;-83
2021/03/30 22:07:37;;;;;;;10.73;8.50;;;13.00;99.90;;;;;;5095300;28;20198;-85
2021/03/30 22:10:08;;;;;;;13.68;8.27;;;13.00;99.90;;;;;;5112462;28;20270;-84
2021/03/30 22:12:35;;;;;;;11.25;8.25;;;13.00;99.90;;;;;;5092183;28;20213;-83
2021/03/30 22:15:05;;;;;;;10.20;8.07;;;12.90;99.90;;;;;;5080672;28;20206;-84
2021/03/30 22:17:32;;;;;;;14.70;9.05;;;12.80;99.90;;;;;;5098569;28;20596;-84
2021/03/30 22:20:05;;;;;;;10.40;8.40;;;12.70;99.90;;;;;;5081125;28;20379;-84
2021/03/30 22:22:32;;;;;;;12.15;7.60;;;12.70;99.90;;;;;;5080872;28;20197;-84
2021/03/30 22:25:09;;;;;;;11.77;8.27;;;12.60;99.90;;;;;;5100572;28;20266;-85
2021/03/30 22:27:39;;;;;;;12.93;8.82;;;12.60;99.90;;;;;;5099982;28;20174;-87
2021/03/30 22:30:11;;;;;;;10.68;7.75;;;12.30;99.90;;;;;;5100409;28;20205;-87
2021/03/30 22:32:38;;;;;;;10.57;6.88;;;12.30;99.90;;;;;;5098668;28;20214;-88
2021/03/30 22:35:09;;;;;;;8.10;6.90;;;12.00;99.90;;;;;;5115117;28;20226;-86
2021/03/30 22:37:37;;;;;;;11.73;7.85;;;11.40;99.90;;;;;;5099541;28;20254;-86
2021/03/30 22:40:07;;;;;;;10.50;7.70;;;11.50;99.90;;;;;;5089123;28;20222;-84
2021/03/30 22:42:35;;;;;;;11.55;7.78;;;11.80;99.90;;;;;;5096064;28;20190;-84
2021/03/30 22:45:01;;;;;;;12.30;7.60;;;12.10;99.90;;;;;;5077629;28;20277;-83
2021/03/30 22:47:28;;;;;;;7.63;6.85;;;12.10;99.90;;;;;;5078317;28;20252;-83
2021/03/30 22:49:59;;;;;;;9.10;7.63;;;12.10;99.90;;;;;;5058580;28;20253;-83
2021/03/30 22:52:27;;;;;;;9.25;7.40;;;12.00;99.90;;;;;;5070348;28;20205;-82
2021/03/30 22:54:54;;;;;;;10.73;7.65;;;12.00;99.90;;;;;;5059508;28;20237;-84
2021/03/30 22:57:21;;;;;;;11.43;8.80;;;11.70;99.90;;;;;;5077830;28;20347;-83
2021/03/30 22:59:47;;;;;;;14.60;7.43;;;11.70;99.90;;;;;;5099946;28;20205;-83
2021/03/30 23:02:15;;;;;;;10.70;7.53;;;11.70;99.90;;;;;;5078438;28;20199;-83
2021/03/30 23:04:42;;;;;;;10.55;8.15;;;11.60;99.90;;;;;;5091745;28;20200;-83
2021/03/30 23:07:09;;;;;;;9.48;8.60;;;11.70;99.90;;;;;;5056890;28;20199;-84
2021/03/30 23:09:37;;;;;;;11.73;8.38;;;11.70;99.90;;;;;;5078775;28;20352;-84
2021/03/30 23:12:05;;;;;;;9.55;7.55;;;11.70;99.90;;;;;;5077911;28;20288;-84
2021/03/30 23:14:33;;;;;;;10.85;8.27;;;11.60;99.90;;;;;;5097421;28;20580;-84
2021/03/30 23:17:00;;;;;;;11.07;8.48;;;11.70;99.90;;;;;;5063522;28;20193;-84
2021/03/30 23:19:27;;;;;;;15.05;9.45;;;11.60;99.90;;;;;;5073458;28;20236;-85
2021/03/30 23:21:55;;;;;;;13.43;8.82;;;11.60;99.90;;;;;;5079320;28;20197;-85
2021/03/30 23:24:22;;;;;;;11.60;8.50;;;11.60;99.90;;;;;;5063973;28;20198;-85
2021/03/30 23:26:50;;;;;;;15.30;9.30;;;11.50;99.90;;;;;;5102692;28;20198;-84
2021/03/30 23:29:16;;;;;;;13.93;9.27;;;11.50;99.90;;;;;;5076828;28;20218;-85
2021/03/30 23:31:43;;;;;;;11.20;8.75;;;11.40;99.90;;;;;;5061251;28;20699;-84
2021/03/30 23:34:10;;;;;;;12.50;9.90;;;11.40;99.90;;;;;;5081024;28;20732;-83
2021/03/30 23:36:36;;;;;;;14.45;9.10;;;11.40;99.90;;;;;;5077990;28;20290;-83
2021/03/30 23:39:04;;;;;;;15.60;8.65;;;11.40;99.90;;;;;;5080809;28;20210;-83
2021/03/30 23:41:31;;;;;;;15.45;9.32;;;11.40;99.90;;;;;;5114730;28;20192;-86
2021/03/30 23:43:58;;;;;;;13.52;10.13;;;11.30;99.90;;;;;;5083018;28;20182;-87
2021/03/30 23:46:25;;;;;;;13.63;9.45;;;11.40;99.90;;;;;;5100207;28;20178;-86
2021/03/30 23:48:52;;;;;;;14.63;10.13;;;11.20;99.90;;;;;;5100226;28;20197;-86
2021/03/30 23:51:21;;;;;;;13.25;9.13;;;10.80;99.90;;;;;;5110599;28;20190;-84
2021/03/30 23:53:48;;;;;;;12.63;9.23;;;11.00;99.90;;;;;;5103022;27;20227;-85
2021/03/30 23:56:15;;;;;;;12.43;9.35;;;11.00;99.90;;;;;;5111112;27;20181;-86
2021/03/30 23:58:42;;;;;;;11.32;9.43;;;11.10;99.90;;;;;;5088183;28;20214;-85
